createdAt,value
2018-04-30T00:00:13.917Z,15.60
2018-04-30T00:02:42.724Z,15.50
2018-04-30T00:05:11.424Z,15.40
2018-04-30T00:07:40.112Z,15.40
2018-04-30T00:10:08.989Z,15.30
2018-04-30T00:12:37.766Z,15.30
2018-04-30T00:15:06.802Z,15.20
2018-04-30T00:17:35.589Z,15.20
2018-04-30T00:20:04.980Z,15.20
2018-04-30T00:22:35.000Z,15.30
2018-04-30T00:25:03.972Z,15.30
2018-04-30T00:27:32.792Z,15.20
2018-04-30T00:30:01.598Z,15.10
2018-04-30T00:32:30.394Z,15.00
2018-04-30T00:34:59.162Z,14.90
2018-04-30T00:37:28.641Z,14.70
2018-04-30T00:39:57.489Z,14.70
2018-04-30T00:42:26.281Z,14.70
2018-04-30T00:44:55.125Z,14.70
2018-04-30T00:47:24.689Z,14.60
2018-04-30T00:49:53.929Z,14.60
2018-04-30T00:52:24.628Z,14.60
2018-04-30T00:55:01.560Z,14.60
2018-04-30T00:57:30.232Z,14.70
2018-04-30T00:59:58.962Z,14.60
2018-04-30T01:02:27.660Z,14.70
2018-04-30T01:04:56.447Z,14.60
2018-04-30T01:07:26.511Z,14.70
2018-04-30T01:09:55.132Z,14.70
2018-04-30T01:12:24.113Z,14.80
2018-04-30T01:14:54.161Z,15.00
2018-04-30T01:17:23.223Z,15.00
2018-04-30T01:19:51.899Z,15.10
2018-04-30T01:22:20.640Z,15.00
2018-04-30T01:24:49.374Z,15.10
2018-04-30T01:27:18.072Z,15.20
2018-04-30T01:29:46.835Z,15.20
2018-04-30T01:32:15.590Z,15.20
2018-04-30T01:34:44.112Z,15.20
2018-04-30T01:37:13.745Z,15.30
2018-04-30T01:39:42.334Z,15.30
2018-04-30T01:42:11.086Z,15.40
2018-04-30T01:44:40.303Z,15.50
2018-04-30T01:47:10.144Z,15.60
2018-04-30T01:49:39.194Z,15.70
2018-04-30T01:52:08.060Z,15.80
2018-04-30T01:54:36.795Z,15.90
2018-04-30T01:57:05.707Z,16.00
2018-04-30T01:59:34.378Z,16.10
2018-04-30T02:02:03.000Z,16.20
2018-04-30T02:04:31.589Z,16.20
2018-04-30T02:07:00.429Z,16.10
2018-04-30T02:09:29.193Z,15.70
2018-04-30T02:11:58.764Z,15.20
2018-04-30T02:14:27.627Z,15.20
2018-04-30T02:16:57.173Z,15.00
2018-04-30T02:19:27.332Z,14.80
2018-04-30T02:21:56.197Z,14.70
2018-04-30T02:24:24.837Z,14.60
2018-04-30T02:26:53.439Z,14.50
2018-04-30T02:29:22.167Z,14.50
2018-04-30T02:31:50.842Z,14.50
2018-04-30T02:34:20.424Z,14.50
2018-04-30T02:36:49.107Z,14.50
2018-04-30T02:39:17.863Z,14.50
2018-04-30T02:41:46.612Z,14.60
2018-04-30T02:44:15.379Z,14.70
2018-04-30T02:46:45.630Z,15.00
2018-04-30T02:49:16.135Z,15.10
2018-04-30T02:51:44.714Z,15.10
2018-04-30T02:54:14.985Z,15.20
2018-04-30T02:56:43.870Z,15.10
2018-04-30T02:59:12.693Z,15.10
2018-04-30T03:01:41.483Z,15.20
2018-04-30T03:04:10.131Z,15.20
2018-04-30T03:06:38.929Z,15.20
2018-04-30T03:09:07.523Z,15.30
2018-04-30T03:11:36.286Z,15.30
2018-04-30T03:14:04.880Z,15.30
2018-04-30T03:16:33.627Z,15.20
2018-04-30T03:19:04.643Z,14.90
2018-04-30T03:21:33.526Z,14.90
2018-04-30T03:24:02.337Z,14.90
2018-04-30T03:26:31.018Z,14.80
2018-04-30T03:28:59.765Z,14.80
2018-04-30T03:31:28.565Z,14.80
2018-04-30T03:33:57.378Z,14.80
2018-04-30T03:36:26.138Z,14.80
2018-04-30T03:38:55.711Z,14.70
2018-04-30T03:41:24.400Z,14.70
2018-04-30T03:43:53.224Z,14.70
2018-04-30T03:46:21.884Z,14.70
2018-04-30T03:48:51.305Z,14.70
2018-04-30T03:51:21.616Z,14.80
2018-04-30T03:53:51.839Z,14.80
2018-04-30T03:56:21.153Z,14.80
2018-04-30T03:58:49.981Z,14.90
2018-04-30T04:01:37.297Z,14.90
2018-04-30T04:04:23.902Z,15.00
2018-04-30T04:06:53.509Z,15.20
2018-04-30T04:09:22.238Z,15.30
2018-04-30T04:11:50.875Z,15.30
2018-04-30T04:14:19.766Z,15.30
2018-04-30T04:16:48.553Z,15.30
2018-04-30T04:19:18.211Z,15.30
2018-04-30T04:21:47.623Z,15.40
2018-04-30T04:24:16.294Z,15.20
2018-04-30T04:26:45.883Z,15.30
2018-04-30T04:29:14.530Z,15.30
2018-04-30T04:31:44.212Z,15.40
2018-04-30T04:34:13.608Z,15.40
2018-04-30T04:36:42.426Z,15.50
2018-04-30T04:39:11.134Z,15.50
2018-04-30T04:41:39.976Z,15.50
2018-04-30T04:44:08.865Z,15.40
2018-04-30T04:46:37.725Z,15.50
2018-04-30T04:49:07.232Z,15.50
2018-04-30T04:51:36.869Z,15.60
2018-04-30T04:54:05.833Z,15.60
2018-04-30T04:56:34.539Z,15.70
2018-04-30T04:59:03.360Z,15.70
2018-04-30T05:01:31.872Z,15.80
2018-04-30T05:04:00.725Z,15.80
2018-04-30T05:06:29.742Z,15.90
2018-04-30T05:08:59.307Z,16.00
2018-04-30T05:11:28.024Z,16.00
2018-04-30T05:13:56.929Z,16.00
2018-04-30T05:16:26.159Z,16.10
2018-04-30T05:18:55.066Z,16.10
2018-04-30T05:21:24.383Z,16.10
2018-04-30T05:23:53.767Z,16.20
2018-04-30T05:26:23.358Z,16.10
2018-04-30T05:28:52.137Z,16.10
2018-04-30T05:31:20.889Z,16.10
2018-04-30T05:33:49.679Z,16.10
2018-04-30T05:36:18.793Z,16.20
2018-04-30T05:38:47.627Z,16.30
2018-04-30T05:41:16.514Z,16.40
2018-04-30T05:43:45.295Z,16.50
2018-04-30T05:46:14.136Z,16.50
2018-04-30T05:48:42.729Z,16.50
2018-04-30T05:51:12.185Z,16.50
2018-04-30T05:53:41.855Z,16.50
2018-04-30T05:56:11.613Z,16.60
2018-04-30T05:58:40.799Z,16.60
2018-04-30T06:01:10.356Z,16.60
2018-04-30T06:03:39.179Z,16.60
2018-04-30T06:06:08.594Z,16.60
2018-04-30T06:08:38.182Z,16.60
2018-04-30T06:11:08.185Z,16.60
2018-04-30T06:13:36.907Z,16.60
2018-04-30T06:16:05.578Z,16.70
2018-04-30T06:18:34.481Z,16.80
2018-04-30T06:21:04.545Z,16.90
2018-04-30T06:23:33.891Z,17.10
2018-04-30T06:26:02.747Z,17.30
2018-04-30T06:28:31.679Z,17.30
2018-04-30T06:31:00.477Z,17.30
2018-04-30T06:33:29.187Z,17.60
2018-04-30T06:35:58.125Z,17.60
2018-04-30T06:38:26.892Z,17.70
2018-04-30T06:40:56.032Z,17.70
2018-04-30T06:43:25.065Z,17.80
2018-04-30T06:45:53.849Z,17.90
2018-04-30T06:48:23.896Z,18.10
2018-04-30T06:50:55.019Z,19.40
2018-04-30T06:53:25.056Z,19.90
2018-04-30T06:55:54.024Z,19.90
2018-04-30T06:58:23.022Z,20.60
2018-04-30T07:00:51.953Z,21.20
2018-04-30T07:03:20.974Z,21.40
2018-04-30T07:05:50.622Z,21.40
2018-04-30T07:08:19.484Z,21.40
2018-04-30T07:10:48.310Z,21.40
2018-04-30T07:13:16.995Z,21.10
2018-04-30T07:15:46.606Z,21.00
2018-04-30T07:18:16.508Z,21.10
2018-04-30T07:20:45.738Z,21.10
2018-04-30T07:23:16.444Z,21.80
2018-04-30T07:25:45.452Z,21.70
2018-04-30T07:28:15.402Z,21.40
2018-04-30T07:30:44.140Z,21.40
2018-04-30T07:33:12.891Z,21.40
2018-04-30T07:35:41.846Z,21.60
2018-04-30T07:38:10.953Z,21.80
2018-04-30T07:40:39.634Z,22.00
2018-04-30T07:43:08.457Z,22.30
2018-04-30T07:45:37.833Z,22.50
2018-04-30T07:48:07.569Z,22.60
2018-04-30T07:50:38.016Z,21.90
2018-04-30T07:53:07.589Z,22.10
2018-04-30T07:55:36.514Z,22.10
2018-04-30T07:58:05.499Z,22.80
2018-04-30T08:00:34.806Z,23.10
2018-04-30T08:03:04.733Z,23.70
2018-04-30T08:05:34.787Z,23.20
2018-04-30T08:08:06.382Z,23.20
2018-04-30T08:10:35.590Z,23.00
2018-04-30T08:13:05.290Z,23.30
2018-04-30T08:15:35.713Z,23.80
2018-04-30T08:18:06.579Z,23.80
2018-04-30T08:20:36.134Z,24.90
2018-04-30T08:23:06.712Z,25.00
2018-04-30T08:25:35.561Z,25.00
2018-04-30T08:28:04.605Z,25.50
2018-04-30T08:30:34.571Z,25.60
2018-04-30T08:33:03.456Z,25.60
2018-04-30T08:35:33.802Z,25.90
2018-04-30T08:38:03.957Z,25.90
2018-04-30T08:40:33.675Z,26.10
2018-04-30T08:43:02.795Z,25.90
2018-04-30T08:45:31.631Z,25.20
2018-04-30T08:48:00.556Z,25.10
2018-04-30T08:50:29.453Z,25.30
2018-04-30T08:52:58.567Z,25.60
2018-04-30T08:55:27.614Z,25.80
2018-04-30T08:57:56.362Z,25.70
2018-04-30T09:00:26.231Z,26.30
2018-04-30T09:02:55.149Z,26.30
2018-04-30T09:05:26.469Z,26.60
2018-04-30T09:07:56.093Z,26.60
2018-04-30T09:10:25.881Z,25.50
2018-04-30T09:12:55.343Z,25.40
2018-04-30T09:15:24.204Z,25.10
2018-04-30T09:17:53.507Z,25.50
2018-04-30T09:20:22.853Z,25.20
2018-04-30T09:22:51.666Z,25.90
2018-04-30T09:25:20.961Z,26.30
2018-04-30T09:27:50.099Z,27.00
2018-04-30T09:30:19.065Z,27.40
2018-04-30T09:32:49.017Z,26.90
2018-04-30T09:35:18.832Z,27.40
2018-04-30T09:37:48.898Z,27.40
2018-04-30T09:40:17.670Z,24.80
2018-04-30T09:42:46.390Z,23.20
2018-04-30T09:45:17.111Z,25.00
2018-04-30T09:47:46.967Z,26.40
2018-04-30T09:50:15.607Z,26.40
2018-04-30T09:52:44.444Z,27.20
2018-04-30T09:55:13.438Z,27.90
2018-04-30T09:57:42.324Z,27.80
2018-04-30T10:00:11.933Z,28.20
2018-04-30T10:02:41.082Z,28.20
2018-04-30T10:05:10.727Z,28.50
2018-04-30T10:07:39.623Z,28.50
2018-04-30T10:10:09.218Z,28.50
2018-04-30T10:12:38.183Z,28.50
2018-04-30T10:15:09.220Z,28.80
2018-04-30T10:17:39.768Z,26.70
2018-04-30T10:20:08.729Z,26.70
2018-04-30T10:22:37.589Z,23.60
2018-04-30T10:25:06.410Z,22.80
2018-04-30T10:27:36.281Z,23.40
2018-04-30T10:30:07.406Z,23.90
2018-04-30T10:32:38.498Z,24.40
2018-04-30T10:35:08.944Z,24.70
2018-04-30T10:37:39.090Z,24.70
2018-04-30T10:40:10.203Z,25.20
2018-04-30T10:42:41.231Z,25.50
2018-04-30T10:45:10.850Z,25.60
2018-04-30T10:47:41.123Z,25.40
2018-04-30T10:50:12.078Z,24.40
2018-04-30T10:52:43.429Z,24.30
2018-04-30T10:55:13.354Z,24.30
2018-04-30T10:57:43.062Z,24.30
2018-04-30T11:00:12.630Z,24.40
2018-04-30T11:02:42.778Z,24.40
2018-04-30T11:05:12.489Z,24.10
2018-04-30T11:07:43.240Z,24.40
2018-04-30T11:10:12.547Z,24.50
2018-04-30T11:12:42.060Z,24.20
2018-04-30T11:15:11.538Z,24.20
2018-04-30T11:17:41.459Z,24.00
2018-04-30T11:20:10.595Z,23.80
2018-04-30T11:22:39.585Z,23.40
2018-04-30T11:25:08.429Z,23.40
2018-04-30T11:27:38.153Z,23.40
2018-04-30T11:30:07.662Z,23.30
2018-04-30T11:32:36.820Z,23.30
2018-04-30T11:35:05.636Z,23.40
2018-04-30T11:37:34.300Z,23.40
2018-04-30T11:40:04.169Z,23.60
2018-04-30T11:42:32.939Z,23.60
2018-04-30T11:45:03.133Z,23.70
2018-04-30T11:47:33.390Z,24.30
2018-04-30T11:50:02.116Z,25.60
2018-04-30T11:52:30.995Z,26.70
2018-04-30T11:54:59.682Z,26.20
2018-04-30T11:57:28.375Z,26.10
2018-04-30T11:59:57.187Z,25.70
2018-04-30T12:02:26.094Z,25.30
2018-04-30T12:04:55.139Z,25.20
2018-04-30T12:07:23.755Z,24.90
2018-04-30T12:09:52.515Z,24.50
2018-04-30T12:12:22.048Z,24.40
2018-04-30T12:14:51.622Z,25.20
2018-04-30T12:17:20.888Z,25.80
2018-04-30T12:19:51.281Z,25.80
2018-04-30T12:22:20.237Z,25.80
2018-04-30T12:24:49.183Z,26.10
2018-04-30T12:27:17.970Z,26.30
2018-04-30T12:29:47.020Z,26.30
2018-04-30T12:32:15.795Z,26.40
2018-04-30T12:34:45.742Z,26.10
2018-04-30T12:37:14.590Z,26.10
2018-04-30T12:39:43.571Z,26.10
2018-04-30T12:42:12.372Z,26.30
2018-04-30T12:44:41.372Z,26.50
2018-04-30T12:47:11.425Z,25.90
2018-04-30T12:49:40.805Z,25.50
2018-04-30T12:52:09.520Z,25.10
2018-04-30T12:54:38.288Z,24.60
2018-04-30T12:57:07.021Z,24.40
2018-04-30T12:59:36.059Z,24.20
2018-04-30T13:02:05.396Z,24.00
2018-04-30T13:04:34.437Z,23.90
2018-04-30T13:07:05.482Z,24.20
2018-04-30T13:09:35.692Z,24.30
2018-04-30T13:12:05.241Z,24.30
2018-04-30T13:14:36.354Z,24.60
2018-04-30T13:17:07.807Z,24.60
2018-04-30T13:19:36.717Z,25.00
2018-04-30T13:22:05.416Z,25.40
2018-04-30T13:24:34.818Z,26.50
2018-04-30T13:27:04.022Z,26.50
2018-04-30T13:29:32.739Z,26.70
2018-04-30T13:32:04.901Z,25.80
2018-04-30T13:34:36.802Z,25.40
2018-04-30T13:37:06.718Z,25.30
2018-04-30T13:39:37.070Z,24.70
2018-04-30T13:42:06.192Z,24.50
2018-04-30T13:44:37.951Z,24.20
2018-04-30T13:47:08.800Z,24.00
2018-04-30T13:49:37.912Z,24.30
2018-04-30T13:52:06.846Z,23.20
2018-04-30T13:54:40.392Z,22.80
2018-04-30T13:57:11.556Z,23.20
2018-04-30T13:59:44.405Z,23.30
2018-04-30T14:02:15.116Z,23.50
2018-04-30T14:04:43.947Z,23.90
2018-04-30T14:07:13.565Z,24.60
2018-04-30T14:09:43.132Z,24.60
2018-04-30T14:12:14.052Z,24.60
2018-04-30T14:14:48.272Z,24.90
2018-04-30T14:17:17.769Z,24.90
2018-04-30T14:19:47.901Z,25.40
2018-04-30T14:22:16.974Z,25.90
2018-04-30T14:24:47.081Z,26.50
2018-04-30T14:27:16.780Z,26.50
2018-04-30T14:29:48.059Z,27.00
2018-04-30T14:32:17.002Z,27.20
2018-04-30T14:34:45.760Z,27.10
2018-04-30T14:37:15.300Z,27.00
2018-04-30T14:39:44.363Z,27.00
2018-04-30T14:42:13.477Z,27.00
2018-04-30T14:44:43.620Z,26.50
2018-04-30T14:47:14.507Z,26.50
2018-04-30T14:49:43.607Z,26.00
2018-04-30T14:52:12.928Z,25.80
2018-04-30T14:54:41.687Z,25.60
2018-04-30T14:57:10.391Z,25.50
2018-04-30T14:59:38.974Z,25.60
2018-04-30T15:02:07.969Z,25.40
2018-04-30T15:04:37.130Z,25.40
2018-04-30T15:07:07.133Z,25.20
2018-04-30T15:09:36.065Z,25.10
2018-04-30T15:12:06.517Z,24.90
2018-04-30T15:14:37.332Z,24.40
2018-04-30T15:17:07.764Z,24.80
2018-04-30T15:19:37.535Z,24.70
2018-04-30T15:22:07.234Z,25.00
2018-04-30T15:24:36.818Z,25.10
2018-04-30T15:27:07.778Z,25.10
2018-04-30T15:29:36.818Z,25.30
2018-04-30T15:32:06.202Z,24.70
2018-04-30T15:34:36.295Z,24.70
2018-04-30T15:37:06.340Z,23.20
2018-04-30T15:39:36.569Z,23.30
2018-04-30T15:42:05.478Z,23.30
2018-04-30T15:44:35.015Z,22.90
2018-04-30T15:47:04.814Z,22.20
2018-04-30T15:49:33.544Z,22.20
2018-04-30T15:52:02.709Z,22.50
2018-04-30T15:54:33.440Z,22.50
2018-04-30T15:57:02.955Z,22.40
2018-04-30T15:59:33.104Z,22.50
2018-04-30T16:02:02.365Z,22.40
2018-04-30T16:04:32.215Z,22.80
2018-04-30T16:07:01.826Z,22.70
2018-04-30T16:09:31.569Z,21.40
2018-04-30T16:12:00.652Z,21.30
2018-04-30T16:14:29.451Z,20.90
2018-04-30T16:16:58.540Z,20.80
2018-04-30T16:19:28.509Z,20.70
2018-04-30T16:21:57.492Z,20.60
2018-04-30T16:24:26.985Z,20.10
2018-04-30T16:26:56.171Z,20.00
2018-04-30T16:29:25.372Z,20.10
2018-04-30T16:31:54.598Z,20.40
2018-04-30T16:34:24.967Z,20.40
2018-04-30T16:36:53.923Z,20.10
2018-04-30T16:39:23.004Z,20.10
2018-04-30T16:41:51.807Z,20.00
2018-04-30T16:44:20.695Z,19.70
2018-04-30T16:46:49.491Z,19.60
2018-04-30T16:49:19.127Z,19.30
2018-04-30T16:51:47.874Z,19.20
2018-04-30T16:54:16.957Z,19.10
2018-04-30T16:56:46.869Z,19.10
2018-04-30T16:59:15.786Z,19.10
2018-04-30T17:01:46.000Z,18.80
2018-04-30T17:04:16.485Z,18.80
2018-04-30T17:06:45.531Z,18.60
2018-04-30T17:09:14.578Z,18.60
2018-04-30T17:11:46.769Z,18.60
2018-04-30T17:14:15.751Z,18.60
2018-04-30T17:16:44.539Z,18.70
2018-04-30T17:19:13.287Z,18.80
2018-04-30T17:21:42.404Z,18.70
2018-04-30T17:24:11.532Z,18.40
2018-04-30T17:26:40.438Z,18.50
2018-04-30T17:29:09.423Z,18.50
2018-04-30T17:31:39.068Z,18.50
2018-04-30T17:34:08.438Z,18.30
2018-04-30T17:36:38.209Z,18.30
2018-04-30T17:39:07.190Z,18.30
2018-04-30T17:41:37.151Z,18.30
2018-04-30T17:44:06.226Z,18.30
2018-04-30T17:46:36.539Z,18.20
2018-04-30T17:49:06.565Z,18.00
2018-04-30T17:51:35.304Z,18.00
2018-04-30T17:54:05.147Z,17.90
2018-04-30T17:56:35.887Z,17.90
2018-04-30T17:59:07.154Z,17.90
2018-04-30T18:01:36.397Z,17.80
2018-04-30T18:04:06.067Z,17.80
2018-04-30T18:06:35.757Z,17.70
2018-04-30T18:09:06.352Z,17.80
2018-04-30T18:11:35.218Z,17.70
2018-04-30T18:14:04.870Z,17.80
2018-04-30T18:16:33.560Z,17.80
2018-04-30T18:19:03.590Z,17.60
2018-04-30T18:21:33.263Z,17.40
2018-04-30T18:24:04.048Z,17.40
2018-04-30T18:26:33.611Z,17.40
2018-04-30T18:29:03.285Z,17.50
2018-04-30T18:31:32.208Z,17.50
2018-04-30T18:34:00.948Z,17.60
2018-04-30T18:36:30.591Z,17.60
2018-04-30T18:39:00.091Z,17.60
2018-04-30T18:41:31.204Z,17.60
2018-04-30T18:43:59.879Z,17.60
2018-04-30T18:46:29.527Z,17.50
2018-04-30T18:48:59.007Z,17.50
2018-04-30T18:51:28.169Z,17.50
2018-04-30T18:53:57.365Z,17.40
2018-04-30T18:56:27.225Z,17.30
2018-04-30T18:58:56.457Z,17.30
2018-04-30T19:01:25.420Z,17.20
2018-04-30T19:03:55.047Z,17.10
2018-04-30T19:06:24.134Z,17.10
2018-04-30T19:08:53.991Z,17.00
2018-04-30T19:11:24.262Z,16.90
2018-04-30T19:13:53.621Z,16.90
2018-04-30T19:16:23.625Z,16.90
2018-04-30T19:18:54.130Z,16.70
2018-04-30T19:21:23.532Z,16.70
2018-04-30T19:23:52.641Z,16.70
2018-04-30T19:26:23.374Z,16.70
2018-04-30T19:28:53.653Z,16.60
2018-04-30T19:31:23.677Z,16.50
2018-04-30T19:33:53.036Z,16.40
2018-04-30T19:36:22.981Z,16.60
2018-04-30T19:38:52.797Z,16.60
2018-04-30T19:41:26.363Z,16.60
2018-04-30T19:43:59.607Z,16.60
2018-04-30T19:46:30.499Z,16.60
2018-04-30T19:49:01.641Z,16.30
2018-04-30T19:51:32.745Z,16.20
2018-04-30T19:54:03.932Z,16.10
2018-04-30T19:56:34.152Z,16.10
2018-04-30T19:59:04.935Z,16.20
2018-04-30T20:01:35.313Z,16.20
2018-04-30T20:04:04.675Z,16.20
2018-04-30T20:06:34.885Z,16.30
2018-04-30T20:09:05.992Z,16.20
2018-04-30T20:11:35.211Z,16.20
2018-04-30T20:14:09.656Z,16.30
2018-04-30T20:16:40.063Z,16.20
2018-04-30T20:19:10.177Z,16.20
2018-04-30T20:21:40.285Z,16.00
2018-04-30T20:24:09.672Z,15.90
2018-04-30T20:26:39.553Z,15.60
2018-04-30T20:29:10.137Z,15.50
2018-04-30T20:31:39.725Z,15.40
2018-04-30T20:34:09.082Z,15.40
2018-04-30T20:36:37.722Z,15.40
2018-04-30T20:39:07.375Z,15.40
2018-04-30T20:41:40.100Z,15.40
2018-04-30T20:44:10.209Z,15.40
2018-04-30T20:46:39.252Z,15.40
2018-04-30T20:49:08.254Z,15.40
2018-04-30T20:51:37.667Z,15.50
2018-04-30T20:54:06.950Z,15.50
2018-04-30T20:56:36.705Z,15.40
2018-04-30T20:59:05.602Z,15.40
2018-04-30T21:01:35.992Z,15.30
2018-04-30T21:04:05.535Z,15.40
2018-04-30T21:06:34.487Z,15.20
2018-04-30T21:09:14.977Z,15.00
2018-04-30T21:11:43.758Z,14.90
2018-04-30T21:14:13.198Z,14.80
2018-04-30T21:16:42.111Z,14.70
2018-04-30T21:19:12.452Z,14.80
2018-04-30T21:21:42.017Z,14.80
2018-04-30T21:24:10.928Z,14.80
2018-04-30T21:26:41.114Z,14.70
2018-04-30T21:29:10.776Z,14.70
2018-04-30T21:31:40.417Z,14.70
2018-04-30T21:34:09.460Z,14.70
2018-04-30T21:36:38.294Z,14.70
2018-04-30T21:39:07.006Z,14.70
2018-04-30T21:41:35.662Z,14.70
2018-04-30T21:44:04.433Z,14.60
2018-04-30T21:46:33.212Z,14.50
2018-04-30T21:49:01.925Z,14.20
2018-04-30T21:51:30.743Z,14.30
2018-04-30T21:53:59.442Z,14.20
2018-04-30T21:56:28.511Z,14.10
2018-04-30T21:58:57.406Z,14.00
2018-04-30T22:01:26.350Z,14.00
2018-04-30T22:03:56.378Z,14.00
2018-04-30T22:06:25.585Z,14.00
2018-04-30T22:08:54.355Z,13.90
2018-04-30T22:11:23.975Z,13.80
2018-04-30T22:13:53.723Z,13.70
2018-04-30T22:16:22.578Z,13.70
2018-04-30T22:18:51.974Z,13.70
2018-04-30T22:21:21.449Z,13.60
2018-04-30T22:23:50.857Z,13.60
2018-04-30T22:26:19.691Z,13.60
2018-04-30T22:28:48.360Z,13.50
2018-04-30T22:31:17.355Z,13.40
2018-04-30T22:33:47.413Z,13.10
2018-04-30T22:36:16.381Z,13.00
2018-04-30T22:38:45.116Z,13.10
2018-04-30T22:41:14.020Z,13.10
2018-04-30T22:43:43.746Z,13.20
2018-04-30T22:46:12.477Z,13.20
2018-04-30T22:48:41.344Z,13.30
2018-04-30T22:51:10.162Z,13.30
2018-04-30T22:53:39.256Z,13.30
2018-04-30T22:56:08.071Z,13.20
2018-04-30T22:58:36.817Z,13.20
2018-04-30T23:01:06.794Z,13.10
2018-04-30T23:03:36.142Z,13.10
2018-04-30T23:06:05.204Z,13.00
2018-04-30T23:08:34.303Z,13.10
2018-04-30T23:11:03.691Z,13.30
2018-04-30T23:13:32.421Z,13.30
2018-04-30T23:16:01.180Z,13.40
2018-04-30T23:18:29.796Z,13.40
2018-04-30T23:20:58.446Z,13.60
2018-04-30T23:23:27.313Z,13.40
2018-04-30T23:25:56.111Z,13.30
2018-04-30T23:28:24.716Z,13.10
2018-04-30T23:30:53.481Z,12.90
2018-04-30T23:33:22.165Z,13.00
2018-04-30T23:35:51.425Z,13.00
2018-04-30T23:38:21.623Z,13.00
2018-04-30T23:40:50.934Z,13.00
2018-04-30T23:43:19.798Z,13.00
2018-04-30T23:45:49.358Z,13.00
2018-04-30T23:48:17.996Z,13.00
2018-04-30T23:50:46.759Z,13.00
2018-04-30T23:53:15.556Z,13.00
2018-04-30T23:55:45.045Z,13.00
2018-04-30T23:58:13.732Z,13.00
